KTOL/TOL METAR and TAF weather

Enter ICAO airport designator
Station Type Date Time Source
KTOL METAR 2021/02/25 14:52 UTC NOAA

KTOL 251452Z 27009KT 10SM CLR 00/M07 A3033 RMK AO2 SLP276 T00001067 53017


Station Type Date Time Source
KTOL Decoded METAR 2021/02/25 14:52 UTC NOAA

TOLEDO EXPRESS AIRPORT, OH, United States (KTOL) 41-35N 083-48W 210M
Feb 25, 2021 - 09:52 AM EST / 2021.02.25 1452 UTC
Wind: from the W (270 degrees) at 10 MPH (9 KT):0
Visibility: 10 mile(s):0
Sky conditions: clear
Temperature: 32.0 F (0.0 C)
Windchill: 23 F (-5 C):1
Dew Point: 19.9 F (-6.7 C)
Relative Humidity: 60%
Pressure (altimeter): 30.33 in. Hg (1027 hPa)
Pressure tendency: 0.05 inches (1.7 hPa) higher than three hours ago
ob: KTOL 251452Z 27009KT 10SM CLR 00/M07 A3033 RMK AO2 SLP276 T00001067 53017
cycle: 15

Station Type Date Time Source
KTOL TAF 2021/02/25 12:22 UTC NOAA

TAF KTOL 251120Z 2512/2612 VRB05KT P6SM FEW030 SCT200

Example: see airport list